^^
Your Local Weather - Clay, NY Station Historical Data
Daily Summary for February 10, 2017 Units:  English    Metric   Both
« Previous Day
Next Day »
Daily Weekly Monthly Yearly Custom
  High: Low: Average:
Temperature: 22.3 °F 15.7 °F 18.9 °F
Dew Point: 18.7 °F 5.8 °F 12 °F
Humidity: 88% 61% 75%
Wind Speed: 6.0mph 0.0mph 2.7mph
Wind Gust: 13.0mph - -
Wind- - SW
Pressure: 30.26 in 29.91 in -
Precipitation: 0.10 in    
Historical Graphs
 
 
Tabular Data for February 10, 2017
Time Temperature Dew Point Pressure Wind Wind Speed Wind Gust Humidity Rainfall Rate (Hourly) solar
00:00 19.0 °F 15.0 °F 30.00 in NNW 4.0 mph 6.0 mph 84% 0.00 in 0 W/m2
00:06 19.3 °F 14.7 °F 30.01 in NW 4.0 mph 7.0 mph 82% 0.00 in 0 W/m2
00:08 19.3 °F 14.7 °F 30.00 in WNW 4.0 mph 7.0 mph 82% 0.00 in 0 W/m2
00:14 19.3 °F 14.4 °F 30.00 in NW 4.0 mph 4.0 mph 81% 0.00 in 0 W/m2
00:20 19.3 °F 13.6 °F 30.00 in NNW 5.0 mph 5.0 mph 78% 0.00 in 0 W/m2
00:26 19.1 °F 13.1 °F 30.01 in West 5.0 mph 5.0 mph 77% 0.00 in 0 W/m2
00:32 19.0 °F 13.3 °F 30.01 in NNW 6.0 mph 6.0 mph 78% 0.00 in 0 W/m2
00:38 18.7 °F 13.3 °F 30.01 in WNW 6.0 mph 13.0 mph 79% 0.00 in 0 W/m2
00:44 18.6 °F 13.5 °F 30.01 in NW 4.0 mph 6.0 mph 80% 0.00 in 0 W/m2
00:50 18.4 °F 13.5 °F 30.01 in NW 3.0 mph 3.0 mph 81% 0.00 in 0 W/m2
00:56 18.3 °F 13.4 °F 30.01 in NW 4.0 mph 4.0 mph 81% 0.00 in 0 W/m2
01:02 18.1 °F 13.3 °F 30.01 in NW 4.0 mph 4.0 mph 81% 0.00 in 0 W/m2
01:08 18.1 °F 12.7 °F 30.01 in NW 5.0 mph 8.0 mph 79% 0.00 in 0 W/m2
01:14 18.1 °F 12.4 °F 30.01 in NW 4.0 mph 6.0 mph 78% 0.00 in 0 W/m2
01:20 18.2 °F 12.2 °F 30.01 in NNW 3.0 mph 3.0 mph 77% 0.00 in 0 W/m2
01:26 18.5 °F 12.8 °F 30.01 in NW 5.0 mph 6.0 mph 78% 0.00 in 0 W/m2
01:32 18.7 °F 13.0 °F 30.02 in NW 5.0 mph 9.0 mph 78% 0.00 in 0 W/m2
01:38 18.8 °F 12.8 °F 30.02 in NW 5.0 mph 9.0 mph 77% 0.00 in 0 W/m2
01:44 18.8 °F 12.5 °F 30.02 in NNW 4.0 mph 5.0 mph 76% 0.00 in 0 W/m2
01:50 18.9 °F 12.6 °F 30.03 in NNW 4.0 mph 4.0 mph 76% 0.00 in 0 W/m2
01:56 19.0 °F 12.7 °F 30.04 in WNW 5.0 mph 10.0 mph 76% 0.00 in 0 W/m2
02:02 19.0 °F 12.7 °F 30.04 in WNW 5.0 mph 5.0 mph 76% 0.00 in 0 W/m2
02:08 18.8 °F 13.1 °F 30.05 in WNW 5.0 mph 8.0 mph 78% 0.00 in 0 W/m2
02:14 18.7 °F 13.3 °F 30.06 in WNW 5.0 mph 12.0 mph 79% 0.00 in 0 W/m2
02:20 18.4 °F 13.8 °F 30.06 in NW 5.0 mph 9.0 mph 82% 0.00 in 0 W/m2
02:22 18.3 °F 14.0 °F 30.06 in NW 5.0 mph 9.0 mph 83% 0.00 in 0 W/m2
02:28 18.2 °F 14.2 °F 30.06 in WNW 4.0 mph 9.0 mph 84% 0.00 in 0 W/m2
02:34 18.3 °F 14.0 °F 30.07 in WNW 3.0 mph 4.0 mph 83% 0.00 in 0 W/m2
02:40 18.4 °F 14.1 °F 30.07 in WNW 3.0 mph 5.0 mph 83% 0.00 in 0 W/m2
02:46 18.9 °F 13.5 °F 30.07 in NW 3.0 mph 6.0 mph 79% 0.00 in 0 W/m2
02:52 19.3 °F 12.1 °F 30.07 in NW 5.0 mph 9.0 mph 73% 0.00 in 0 W/m2
02:58 19.4 °F 11.2 °F 30.07 in NW 6.0 mph 9.0 mph 70% 0.00 in 0 W/m2
03:04 19.3 °F 10.8 °F 30.08 in NW 6.0 mph 6.0 mph 69% 0.00 in 0 W/m2
03:10 19.2 °F 10.0 °F 30.09 in WNW 6.0 mph 7.0 mph 67% 0.00 in 0 W/m2
03:16 18.9 °F 10.4 °F 30.09 in NNW 6.0 mph 7.0 mph 69% 0.00 in 0 W/m2
03:22 18.7 °F 8.9 °F 30.09 in NW 5.0 mph 9.0 mph 65% 0.00 in 0 W/m2
03:28 18.4 °F 8.6 °F 30.10 in WNW 5.0 mph 9.0 mph 65% 0.00 in 0 W/m2
03:34 18.2 °F 8.4 °F 30.10 in NW 5.0 mph 8.0 mph 65% 0.00 in 0 W/m2
03:40 17.9 °F 7.8 °F 30.10 in NW 6.0 mph 6.0 mph 64% 0.00 in 0 W/m2
03:46 17.6 °F 7.1 °F 30.11 in NW 5.0 mph 8.0 mph 63% 0.00 in 0 W/m2
03:52 17.5 °F 6.7 °F 30.11 in NW 5.0 mph 6.0 mph 62% 0.00 in 0 W/m2
03:58 17.3 °F 6.5 °F 30.12 in NNW 5.0 mph 9.0 mph 62% 0.00 in 0 W/m2
04:04 17.3 °F 6.5 °F 30.12 in NW 5.0 mph 10.0 mph 62% 0.00 in 0 W/m2
04:10 17.1 °F 6.3 °F 30.12 in NW 4.0 mph 4.0 mph 62% 0.00 in 0 W/m2
04:16 17.3 °F 6.1 °F 30.13 in NNW 6.0 mph 11.0 mph 61% 0.00 in 0 W/m2
04:22 17.2 °F 6.0 °F 30.13 in WNW 5.0 mph 9.0 mph 61% 0.00 in 0 W/m2
04:28 16.9 °F 5.8 °F 30.13 in WNW 3.0 mph 9.0 mph 61% 0.00 in 0 W/m2
04:34 16.9 °F 5.8 °F 30.14 in WNW 3.0 mph 4.0 mph 61% 0.00 in 0 W/m2
04:40 16.9 °F 6.1 °F 30.14 in NW 3.0 mph 3.0 mph 62% 0.00 in 0 W/m2
04:46 16.9 °F 6.1 °F 30.14 in NW 2.0 mph 3.0 mph 62% 0.00 in 0 W/m2
04:52 17.1 °F 6.3 °F 30.15 in NW 3.0 mph 5.0 mph 62% 0.00 in 0 W/m2
04:58 17.3 °F 6.1 °F 30.15 in NW 5.0 mph 6.0 mph 61% 0.00 in 0 W/m2
05:04 17.2 °F 6.0 °F 30.15 in NW 4.0 mph 5.0 mph 61% 0.00 in 0 W/m2
05:10 17.3 °F 6.1 °F 30.16 in NW 4.0 mph 4.0 mph 61% 0.00 in 0 W/m2
05:16 17.3 °F 6.1 °F 30.16 in West 3.0 mph 4.0 mph 61% 0.00 in 0 W/m2
05:22 17.4 °F 6.2 °F 30.16 in WNW 4.0 mph 6.0 mph 61% 0.00 in 0 W/m2
05:28 17.4 °F 6.2 °F 30.16 in WNW 3.0 mph 6.0 mph 61% 0.00 in 0 W/m2
05:34 17.5 °F 6.3 °F 30.16 in WNW 3.0 mph 3.0 mph 61% 0.00 in 0 W/m2
05:40 17.5 °F 6.7 °F 30.17 in North 2.0 mph 2.0 mph 62% 0.00 in 0 W/m2
05:46 17.6 °F 6.8 °F 30.17 in NW 3.0 mph 4.0 mph 62% 0.00 in 0 W/m2
05:52 17.6 °F 6.8 °F 30.17 in WNW 3.0 mph 3.0 mph 62% 0.00 in 0 W/m2
05:58 17.7 °F 6.9 °F 30.17 in NW 2.0 mph 6.0 mph 62% 0.00 in 0 W/m2
06:04 17.8 °F 7.0 °F 30.17 in WNW 3.0 mph 5.0 mph 62% 0.00 in 0 W/m2
06:10 17.8 °F 7.3 °F 30.17 in WNW 3.0 mph 3.0 mph 63% 0.00 in 0 W/m2
06:16 17.8 °F 7.3 °F 30.18 in WNW 3.0 mph 6.0 mph 63% 0.00 in 0 W/m2
06:22 17.8 °F 8.0 °F 30.17 in WNW 3.0 mph 5.0 mph 65% 0.00 in 0 W/m2
06:28 17.5 °F 9.1 °F 30.17 in WNW 3.0 mph 5.0 mph 69% 0.00 in 0 W/m2
06:34 17.4 °F 9.0 °F 30.18 in WNW 3.0 mph 5.0 mph 69% 0.00 in 0 W/m2
06:40 17.3 °F 9.2 °F 30.18 in WNW 3.0 mph 3.0 mph 70% 0.00 in 0 W/m2
06:46 17.1 °F 9.6 °F 30.18 in NW 3.0 mph 4.0 mph 72% 0.00 in 0 W/m2
06:52 17.1 °F 9.6 °F 30.18 in NW 3.0 mph 3.0 mph 72% 0.00 in 0 W/m2
06:58 17.1 °F 9.6 °F 30.18 in NW 3.0 mph 4.0 mph 72% 0.00 in 0 W/m2
07:04 17.0 °F 9.8 °F 30.19 in NW 2.0 mph 4.0 mph 73% 0.00 in 0 W/m2
07:10 17.0 °F 9.8 °F 30.19 in NW 2.0 mph 6.0 mph 73% 0.00 in 0 W/m2
07:16 16.9 °F 10.3 °F 30.20 in NNW 3.0 mph 6.0 mph 75% 0.00 in 0 W/m2
07:22 16.7 °F 10.4 °F 30.20 in WNW 3.0 mph 3.0 mph 76% 0.00 in 5 W/m2
07:28 16.7 °F 11.0 °F 30.20 in NW 2.0 mph 3.0 mph 78% 0.00 in 9 W/m2
07:34 16.6 °F 11.2 °F 30.20 in NW 1.0 mph 2.0 mph 79% 0.00 in 11 W/m2
07:40 16.6 °F 11.2 °F 30.20 in Calm     79% 0.00 in 19 W/m2
07:46 16.7 °F 11.6 °F 30.21 in Calm   2.0 mph 80% 0.00 in 21 W/m2
07:52 16.7 °F 11.6 °F 30.21 in NW 1.0 mph 3.0 mph 80% 0.00 in 25 W/m2
07:58 16.7 °F 11.9 °F 30.21 in NW 1.0 mph 3.0 mph 81% 0.00 in 30 W/m2
08:04 16.8 °F 11.4 °F 30.21 in West 3.0 mph 4.0 mph 79% 0.00 in 47 W/m2
08:10 16.9 °F 11.2 °F 30.21 in NW 3.0 mph 3.0 mph 78% 0.00 in 47 W/m2
08:16 17.0 °F 11.3 °F 30.22 in WNW 2.0 mph 7.0 mph 78% 0.00 in 56 W/m2
08:22 17.1 °F 11.4 °F 30.22 in North 2.0 mph 2.0 mph 78% 0.00 in 67 W/m2
08:28 17.0 °F 11.6 °F 30.22 in North 3.0 mph 4.0 mph 79% 0.00 in 63 W/m2
08:34 16.8 °F 11.7 °F 30.22 in NNW 3.0 mph 5.0 mph 80% 0.00 in 77 W/m2
08:40 16.7 °F 11.9 °F 30.22 in NW 3.0 mph 3.0 mph 81% 0.00 in 76 W/m2
08:46 16.7 °F 12.2 °F 30.22 in NW 3.0 mph 3.0 mph 82% 0.00 in 81 W/m2
08:52 16.4 °F 12.4 °F 30.22 in NNW 3.0 mph 3.0 mph 84% 0.00 in 104 W/m2
08:58 16.5 °F 12.5 °F 30.23 in NW 3.0 mph 4.0 mph 84% 0.00 in 123 W/m2
09:04 16.3 °F 12.3 °F 30.23 in NNE 4.0 mph 6.0 mph 84% 0.00 in 130 W/m2
09:10 16.1 °F 12.1 °F 30.23 in NNW 4.0 mph 4.0 mph 84% 0.00 in 165 W/m2
09:16 16.2 °F 12.2 °F 30.23 in NNW 3.0 mph 4.0 mph 84% 0.00 in 207 W/m2
09:22 16.3 °F 12.0 °F 30.23 in NNW 3.0 mph 3.0 mph 83% 0.00 in 190 W/m2
09:28 16.4 °F 11.9 °F 30.23 in NNW 4.0 mph 4.0 mph 82% 0.00 in 221 W/m2
09:34 16.5 °F 12.0 °F 30.23 in NW 3.0 mph 4.0 mph 82% 0.00 in 195 W/m2
09:40 16.4 °F 11.9 °F 30.23 in NW 4.0 mph 4.0 mph 82% 0.00 in 195 W/m2
09:46 16.0 °F 10.9 °F 30.24 in North 5.0 mph 7.0 mph 80% 0.00 in 195 W/m2
09:52 15.8 °F 10.4 °F 30.24 in NNW 5.0 mph 6.0 mph 79% 0.00 in 183 W/m2
09:58 15.7 °F 10.3 °F 30.24 in North 5.0 mph 6.0 mph 79% 0.00 in 237 W/m2
10:04 15.9 °F 10.5 °F 30.24 in NNE 6.0 mph 6.0 mph 79% 0.00 in 204 W/m2
10:10 16.0 °F 10.6 °F 30.25 in NNW 4.0 mph 4.0 mph 79% 0.00 in 183 W/m2
10:16 16.3 °F 10.6 °F 30.25 in North 3.0 mph 5.0 mph 78% 0.00 in 155 W/m2
10:22 16.1 °F 10.7 °F 30.25 in NNE 3.0 mph 7.0 mph 79% 0.00 in 246 W/m2
10:28 16.4 °F 11.6 °F 30.25 in NNW 4.0 mph 7.0 mph 81% 0.00 in 392 W/m2
10:34 17.3 °F 12.2 °F 30.25 in NNE 4.0 mph 4.0 mph 80% 0.00 in 445 W/m2
10:40 17.4 °F 11.4 °F 30.26 in NE 4.0 mph 4.0 mph 77% 0.00 in 396 W/m2
10:46 17.4 °F 11.7 °F 30.26 in NW 4.0 mph 4.0 mph 78% 0.00 in 404 W/m2
10:52 18.3 °F 11.4 °F 30.25 in NW 3.0 mph 4.0 mph 74% 0.00 in 466 W/m2
10:58 17.9 °F 11.3 °F 30.26 in NE 3.0 mph 4.0 mph 75% 0.00 in 526 W/m2
11:04 17.7 °F 10.5 °F 30.25 in North 5.0 mph 6.0 mph 73% 0.00 in 213 W/m2
11:10 16.9 °F 10.0 °F 30.25 in NNW 5.0 mph 5.0 mph 74% 0.00 in 236 W/m2
11:16 18.6 °F 12.0 °F 30.24 in NNW 3.0 mph 5.0 mph 75% 0.00 in 624 W/m2
11:22 17.9 °F 10.4 °F 30.25 in NNW 3.0 mph 3.0 mph 72% 0.00 in 292 W/m2
11:28 17.6 °F 10.4 °F 30.24 in North 4.0 mph 5.0 mph 73% 0.00 in 420 W/m2
11:34 18.3 °F 11.1 °F 30.24 in NNW 5.0 mph 6.0 mph 73% 0.00 in 515 W/m2
11:40 17.6 °F 10.1 °F 30.23 in North 4.0 mph 6.0 mph 72% 0.00 in 383 W/m2
11:46 17.6 °F 10.1 °F 30.23 in NE 3.0 mph 6.0 mph 72% 0.00 in 385 W/m2
11:52 17.7 °F 10.2 °F 30.22 in North 3.0 mph 3.0 mph 72% 0.00 in 373 W/m2
11:58 17.9 °F 9.8 °F 30.22 in North 4.0 mph 7.0 mph 70% 0.00 in 364 W/m2
12:04 17.9 °F 9.8 °F 30.21 in NNW 4.0 mph 4.0 mph 70% 0.00 in 366 W/m2
12:06 18.3 °F 10.5 °F 30.21 in NNE 4.0 mph 6.0 mph 71% 0.00 in 366 W/m2
12:12 17.9 °F 9.8 °F 30.21 in North 4.0 mph 5.0 mph 70% 0.00 in 327 W/m2
12:18 18.7 °F 10.2 °F 30.21 in North 3.0 mph 5.0 mph 69% 0.00 in 355 W/m2
12:24 19.1 °F 10.9 °F 30.21 in NNE 3.0 mph 3.0 mph 70% 0.00 in 522 W/m2
12:30 19.7 °F 10.8 °F 30.21 in NW 2.0 mph 4.0 mph 68% 0.00 in 260 W/m2
12:34 19.8 °F 10.9 °F 30.21 in NW 1.0 mph 4.0 mph 68% 0.00 in 606 W/m2
12:38 19.9 °F 10.4 °F 30.21 in North 2.0 mph 4.0 mph 66% 0.79 in 540 W/m2
12:42 20.2 °F 10.6 °F 30.21 in North 2.0 mph 3.0 mph 66% 0.13 in 566 W/m2
12:46 20.8 °F 11.2 °F 30.21 in North 2.0 mph 3.0 mph 66% 0.07 in 612 W/m2
12:48 20.7 °F 10.8 °F 30.21 in North 2.0 mph 3.0 mph 65% 0.06 in 633 W/m2
12:54 21.2 °F 10.9 °F 30.20 in North 1.0 mph 2.0 mph 64% 0.04 in 657 W/m2
13:00 21.3 °F 10.3 °F 30.20 in North 2.0 mph 3.0 mph 62% 0.00 in 554 W/m2
13:06 21.0 °F 10.4 °F 30.20 in NW 2.0 mph 3.0 mph 63% 0.00 in 496 W/m2
13:12 19.2 °F 9.0 °F 30.20 in NW 1.0 mph 2.0 mph 64% 0.15 in 411 W/m2
13:18 19.6 °F 9.4 °F 30.19 in Calm   2.0 mph 64% 0.07 in 436 W/m2
13:24 19.8 °F 10.3 °F 30.19 in North 1.0 mph 5.0 mph 66% 0.04 in 443 W/m2
13:30 20.2 °F 10.6 °F 30.19 in NNW 2.0 mph 2.0 mph 66% 0.00 in 434 W/m2
13:36 19.7 °F 10.2 °F 30.18 in ESE 1.0 mph 4.0 mph 66% 0.00 in 438 W/m2
13:42 20.1 °F 11.2 °F 30.18 in ESE 1.0 mph 1.0 mph 68% 0.00 in 480 W/m2
13:48 20.8 °F 10.5 °F 30.18 in SSW 1.0 mph 1.0 mph 64% 0.05 in 480 W/m2
13:54 22.1 °F 11.1 °F 30.18 in SSW 1.0 mph 1.0 mph 62% 0.05 in 443 W/m2
14:00 22.3 °F 11.2 °F 30.17 in SSW 1.0 mph 1.0 mph 62% 0.00 in 431 W/m2
14:06 22.1 °F 10.7 °F 30.17 in West 1.0 mph 3.0 mph 61% 0.00 in 471 W/m2
14:12 21.8 °F 10.4 °F 30.16 in West 1.0 mph 2.0 mph 61% 0.00 in 418 W/m2
14:18 20.7 °F 10.1 °F 30.16 in West 1.0 mph 2.0 mph 63% 0.00 in 366 W/m2
14:24 22.1 °F 11.4 °F 30.16 in Calm   1.0 mph 63% 0.00 in 355 W/m2
14:30 20.7 °F 10.1 °F 30.17 in SSE 1.0 mph 1.0 mph 63% 0.00 in 313 W/m2
14:36 21.0 °F 11.1 °F 30.17 in SSE 1.0 mph 1.0 mph 65% 0.00 in 297 W/m2
14:42 21.4 °F 11.1 °F 30.17 in SSW 1.0 mph 1.0 mph 64% 0.00 in 244 W/m2
14:48 21.3 °F 11.0 °F 30.17 in SSW 1.0 mph 1.0 mph 64% 0.00 in 276 W/m2
14:54 21.4 °F 11.1 °F 30.16 in SE 1.0 mph 3.0 mph 64% 0.00 in 283 W/m2
15:00 21.1 °F 11.2 °F 30.16 in SSE 1.0 mph 4.0 mph 65% 0.00 in 274 W/m2
15:06 21.0 °F 11.1 °F 30.16 in SSE 2.0 mph 4.0 mph 65% 0.00 in 251 W/m2
15:12 20.9 °F 11.3 °F 30.16 in ESE 2.0 mph 2.0 mph 66% 0.00 in 214 W/m2
15:18 21.1 °F 11.5 °F 30.15 in SE 2.0 mph 3.0 mph 66% 0.00 in 186 W/m2
15:24 21.4 °F 11.8 °F 30.15 in SSE 2.0 mph 4.0 mph 66% 0.00 in 162 W/m2
15:30 21.3 °F 11.7 °F 30.15 in SSE 2.0 mph 2.0 mph 66% 0.00 in 128 W/m2
15:36 21.3 °F 12.0 °F 30.15 in SSE 1.0 mph 5.0 mph 67% 0.00 in 116 W/m2
15:42 21.3 °F 12.0 °F 30.15 in SSE 2.0 mph 3.0 mph 67% 0.00 in 113 W/m2
15:48 21.4 °F 12.1 °F 30.15 in SSE 1.0 mph 3.0 mph 67% 0.00 in 100 W/m2
15:54 21.5 °F 12.2 °F 30.14 in Calm   1.0 mph 67% 0.00 in 91 W/m2
16:00 21.6 °F 12.7 °F 30.14 in Calm   3.0 mph 68% 0.00 in 81 W/m2
16:06 21.6 °F 12.7 °F 30.13 in ESE 1.0 mph 3.0 mph 68% 0.00 in 83 W/m2
16:12 21.5 °F 12.6 °F 30.13 in SE 1.0 mph 5.0 mph 68% 0.00 in 65 W/m2
16:18 21.4 °F 12.8 °F 30.13 in East 2.0 mph 5.0 mph 69% 0.00 in 51 W/m2
16:24 21.4 °F 12.8 °F 30.12 in ESE 2.0 mph 2.0 mph 69% 0.00 in 44 W/m2
16:30 21.3 °F 12.4 °F 30.12 in SE 2.0 mph 5.0 mph 68% 0.00 in 40 W/m2
16:36 21.3 °F 12.7 °F 30.11 in East 2.0 mph 5.0 mph 69% 0.00 in 42 W/m2
16:42 20.9 °F 11.7 °F 30.10 in ESE 3.0 mph 3.0 mph 67% 0.00 in 33 W/m2
16:48 20.3 °F 11.4 °F 30.10 in ESE 3.0 mph 3.0 mph 68% 0.00 in 32 W/m2
16:54 20.0 °F 11.1 °F 30.10 in East 2.0 mph 4.0 mph 68% 0.00 in 25 W/m2
17:00 19.7 °F 10.8 °F 30.10 in East 3.0 mph 3.0 mph 68% 0.00 in 18 W/m2
17:06 19.6 °F 11.1 °F 30.09 in ENE 3.0 mph 6.0 mph 69% 0.00 in 14 W/m2
17:12 19.5 °F 11.0 °F 30.09 in ESE 3.0 mph 5.0 mph 69% 0.00 in 11 W/m2
17:18 19.3 °F 10.8 °F 30.08 in ENE 3.0 mph 5.0 mph 69% 0.00 in 7 W/m2
17:24 19.2 °F 11.0 °F 30.08 in ENE 2.0 mph 3.0 mph 70% 0.00 in 0 W/m2
17:30 19.2 °F 11.0 °F 30.08 in East 3.0 mph 3.0 mph 70% 0.00 in 0 W/m2
17:36 19.1 °F 10.9 °F 30.07 in ENE 2.0 mph 4.0 mph 70% 0.00 in 0 W/m2
17:42 19.1 °F 10.9 °F 30.07 in East 2.0 mph 4.0 mph 70% 0.00 in 0 W/m2
17:48 19.2 °F 11.0 °F 30.07 in East 2.0 mph 6.0 mph 70% 0.00 in 0 W/m2
17:54 19.2 °F 11.3 °F 30.07 in East 2.0 mph 2.0 mph 71% 0.00 in 0 W/m2
18:00 19.2 °F 11.3 °F 30.07 in East 1.0 mph 1.0 mph 71% 0.00 in 0 W/m2
18:06 19.2 °F 11.3 °F 30.07 in ENE 2.0 mph 2.0 mph 71% 0.00 in 0 W/m2
18:12 19.3 °F 11.1 °F 30.07 in ESE 2.0 mph 3.0 mph 70% 0.00 in 0 W/m2
18:18 19.4 °F 11.5 °F 30.07 in East 2.0 mph 3.0 mph 71% 0.00 in 0 W/m2
18:24 19.3 °F 12.1 °F 30.07 in East 2.0 mph 2.0 mph 73% 0.00 in 0 W/m2
18:30 19.3 °F 12.4 °F 30.06 in SE 2.0 mph 2.0 mph 74% 0.00 in 0 W/m2
18:36 19.2 °F 12.9 °F 30.06 in East 3.0 mph 7.0 mph 76% 0.00 in 0 W/m2
18:42 19.1 °F 13.1 °F 30.06 in ENE 2.0 mph 2.0 mph 77% 0.00 in 0 W/m2
18:48 19.0 °F 13.3 °F 30.06 in ESE 2.0 mph 2.0 mph 78% 0.00 in 0 W/m2
18:54 18.9 °F 13.7 °F 30.06 in ESE 2.0 mph 3.0 mph 80% 0.00 in 0 W/m2
19:00 18.9 °F 14.0 °F 30.05 in SE 2.0 mph 2.0 mph 81% 0.00 in 0 W/m2
19:06 18.8 °F 14.2 °F 30.05 in East 2.0 mph 6.0 mph 82% 0.00 in 0 W/m2
19:12 18.8 °F 14.5 °F 30.05 in East 2.0 mph 2.0 mph 83% 0.00 in 0 W/m2
19:18 18.9 °F 14.9 °F 30.04 in ESE 2.0 mph 3.0 mph 84% 0.00 in 0 W/m2
19:24 18.9 °F 14.9 °F 30.04 in East 2.0 mph 3.0 mph 84% 0.00 in 0 W/m2
19:30 19.0 °F 15.2 °F 30.04 in SE 2.0 mph 2.0 mph 85% 0.00 in 0 W/m2
19:36 19.0 °F 15.2 °F 30.04 in ESE 2.0 mph 5.0 mph 85% 0.00 in 0 W/m2
19:42 19.0 °F 15.5 °F 30.03 in ENE 2.0 mph 4.0 mph 86% 0.00 in 0 W/m2
19:48 19.0 °F 15.5 °F 30.02 in East 2.0 mph 4.0 mph 86% 0.00 in 0 W/m2
19:54 19.0 °F 15.5 °F 30.02 in East 2.0 mph 5.0 mph 86% 0.00 in 0 W/m2
20:02 19.1 °F 15.9 °F 30.01 in East 2.0 mph 2.0 mph 87% 0.00 in 0 W/m2
20:08 19.1 °F 15.9 °F 30.00 in East 2.0 mph 4.0 mph 87% 0.00 in 0 W/m2
20:14 19.0 °F 15.8 °F 30.00 in ENE 2.0 mph 7.0 mph 87% 0.00 in 0 W/m2
20:20 19.0 °F 15.8 °F 29.99 in East 3.0 mph 3.0 mph 87% 0.00 in 0 W/m2
20:26 19.0 °F 15.8 °F 29.99 in SE 2.0 mph 3.0 mph 87% 0.00 in 0 W/m2
20:32 19.1 °F 15.9 °F 29.98 in East 2.0 mph 3.0 mph 87% 0.00 in 0 W/m2
20:38 19.1 °F 15.9 °F 29.98 in East 2.0 mph 3.0 mph 87% 0.00 in 0 W/m2
20:44 19.2 °F 16.0 °F 29.97 in East 2.0 mph 6.0 mph 87% 0.00 in 0 W/m2
20:50 19.3 °F 16.1 °F 29.96 in East 2.0 mph 3.0 mph 87% 0.00 in 0 W/m2
20:56 19.3 °F 16.1 °F 29.97 in ENE 2.0 mph 5.0 mph 87% 0.00 in 0 W/m2
21:02 19.5 °F 16.3 °F 29.97 in East 2.0 mph 3.0 mph 87% 0.00 in 0 W/m2
21:08 19.5 °F 16.3 °F 29.96 in ENE 2.0 mph 5.0 mph 87% 0.00 in 0 W/m2
21:14 19.5 °F 16.3 °F 29.96 in East 3.0 mph 5.0 mph 87% 0.00 in 0 W/m2
21:20 19.6 °F 16.4 °F 29.96 in ENE 3.0 mph 4.0 mph 87% 0.00 in 0 W/m2
21:26 19.7 °F 16.5 °F 29.95 in ENE 3.0 mph 4.0 mph 87% 0.00 in 0 W/m2
21:32 19.8 °F 16.6 °F 29.96 in ESE 2.0 mph 3.0 mph 87% 0.00 in 0 W/m2
21:38 19.9 °F 16.7 °F 29.94 in East 2.0 mph 3.0 mph 87% 0.00 in 0 W/m2
21:44 20.0 °F 16.8 °F 29.94 in SE 2.0 mph 2.0 mph 87% 0.00 in 0 W/m2
21:50 20.1 °F 16.9 °F 29.94 in SE 1.0 mph 1.0 mph 87% 0.00 in 0 W/m2
21:56 20.1 °F 16.9 °F 29.94 in East 1.0 mph 3.0 mph 87% 0.00 in 0 W/m2
22:02 20.2 °F 17.2 °F 29.94 in East 1.0 mph 2.0 mph 88% 0.00 in 0 W/m2
22:08 20.2 °F 17.2 °F 29.93 in ESE 1.0 mph 6.0 mph 88% 0.00 in 0 W/m2
22:14 20.3 °F 17.3 °F 29.93 in ENE 1.0 mph 2.0 mph 88% 0.00 in 0 W/m2
22:20 20.3 °F 17.3 °F 29.93 in ENE 1.0 mph 1.0 mph 88% 0.00 in 0 W/m2
22:26 20.5 °F 17.2 °F 29.93 in East 1.0 mph 3.0 mph 87% 0.00 in 0 W/m2
22:32 20.6 °F 17.3 °F 29.93 in SE 1.0 mph 1.0 mph 87% 0.00 in 0 W/m2
22:38 20.7 °F 17.4 °F 29.93 in SE 1.0 mph 3.0 mph 87% 0.00 in 0 W/m2
22:44 20.8 °F 17.5 °F 29.93 in ESE 1.0 mph 1.0 mph 87% 0.00 in 0 W/m2
22:50 20.9 °F 17.6 °F 29.92 in ENE 1.0 mph 2.0 mph 87% 0.00 in 0 W/m2
22:56 20.9 °F 17.6 °F 29.92 in East 1.0 mph 2.0 mph 87% 0.00 in 0 W/m2
23:02 21.1 °F 17.8 °F 29.92 in East 1.0 mph 2.0 mph 87% 0.00 in 0 W/m2
23:08 21.2 °F 17.9 °F 29.93 in ENE 1.0 mph 3.0 mph 87% 0.00 in 0 W/m2
23:14 21.3 °F 18.0 °F 29.92 in ENE 1.0 mph 2.0 mph 87% 0.00 in 0 W/m2
23:20 21.4 °F 18.1 °F 29.92 in ENE 1.0 mph 4.0 mph 87% 0.00 in 0 W/m2
23:26 21.5 °F 18.2 °F 29.92 in ESE 1.0 mph 4.0 mph 87% 0.00 in 0 W/m2
23:32 21.6 °F 18.3 °F 29.92 in Calm   1.0 mph 87% 0.00 in 0 W/m2
23:38 21.7 °F 18.4 °F 29.91 in ENE 1.0 mph 3.0 mph 87% 0.00 in 0 W/m2
23:44 21.8 °F 18.5 °F 29.91 in ENE 2.0 mph 2.0 mph 87% 0.00 in 0 W/m2
23:50 21.9 °F 18.6 °F 29.91 in ENE 1.0 mph 1.0 mph 87% 0.00 in 0 W/m2
23:56 22.0 °F 18.7 °F 29.91 in ENE 1.0 mph 2.0 mph 87% 0.00 in 0 W/m2
Country Meadow, Clay, NY, USA
Compliments of Weather Underground - 2 mb